createdAt,value
2023-07-27T00:00:16.767Z,16.43
2023-07-27T00:02:43.305Z,16.39
2023-07-27T00:05:09.903Z,16.48
2023-07-27T00:07:36.488Z,16.59
2023-07-27T00:10:03.094Z,16.44
2023-07-27T00:12:29.517Z,16.46
2023-07-27T00:14:55.962Z,16.48
2023-07-27T00:17:22.561Z,16.36
2023-07-27T00:19:49.047Z,16.40
2023-07-27T00:22:15.497Z,16.44
2023-07-27T00:24:42.017Z,16.47
2023-07-27T00:27:08.530Z,16.42
2023-07-27T00:29:34.949Z,16.41
2023-07-27T00:32:01.720Z,16.43
2023-07-27T00:34:28.232Z,16.42
2023-07-27T00:36:54.704Z,16.40
2023-07-27T00:39:21.526Z,16.47
2023-07-27T00:41:48.014Z,16.41
2023-07-27T00:44:14.468Z,16.43
2023-07-27T00:46:41.338Z,16.46
2023-07-27T00:49:08.246Z,16.51
2023-07-27T00:51:40.135Z,16.41
2023-07-27T00:54:07.664Z,16.51
2023-07-27T00:56:38.146Z,16.48
2023-07-27T00:59:05.656Z,16.40
2023-07-27T01:01:32.179Z,16.48
2023-07-27T01:03:58.989Z,16.49
2023-07-27T01:06:25.787Z,16.54
2023-07-27T01:08:55.478Z,16.56
2023-07-27T01:11:28.282Z,16.42
2023-07-27T01:14:00.767Z,16.48
2023-07-27T01:16:34.240Z,16.43
2023-07-27T01:19:13.085Z,16.48
2023-07-27T01:21:44.763Z,16.47
2023-07-27T01:24:25.611Z,16.37
2023-07-27T01:26:57.313Z,16.40
2023-07-27T01:29:58.558Z,16.53
2023-07-27T01:32:25.775Z,16.47
2023-07-27T01:34:55.862Z,16.55
2023-07-27T01:37:22.426Z,16.30
2023-07-27T01:39:51.328Z,16.38
2023-07-27T01:42:18.852Z,16.45
2023-07-27T01:44:46.091Z,16.46
2023-07-27T01:47:12.871Z,16.53
2023-07-27T01:49:40.786Z,16.43
2023-07-27T01:52:08.245Z,16.54
2023-07-27T01:54:35.601Z,16.50
2023-07-27T01:57:02.655Z,16.57
2023-07-27T01:59:29.530Z,16.53
2023-07-27T02:01:56.121Z,16.43
2023-07-27T02:04:22.796Z,16.34
2023-07-27T02:06:52.428Z,16.49
2023-07-27T02:09:19.172Z,16.44
2023-07-27T02:11:48.530Z,16.39
2023-07-27T02:14:39.546Z,16.45
2023-07-27T02:17:10.823Z,16.52
2023-07-27T02:19:38.912Z,16.52
2023-07-27T02:22:05.608Z,16.48
2023-07-27T02:24:32.386Z,16.47
2023-07-27T02:26:58.954Z,16.39
2023-07-27T02:29:25.408Z,16.49
2023-07-27T02:31:51.975Z,16.49
2023-07-27T02:34:20.431Z,16.52
2023-07-27T02:36:46.900Z,16.59
2023-07-27T02:39:13.414Z,16.46
2023-07-27T02:41:39.834Z,16.48
2023-07-27T02:44:06.270Z,16.59
2023-07-27T02:46:32.910Z,16.54
2023-07-27T02:48:59.572Z,16.55
2023-07-27T02:51:26.019Z,16.66
2023-07-27T02:53:52.425Z,16.60
2023-07-27T02:56:18.913Z,16.60
2023-07-27T02:58:45.373Z,16.61
2023-07-27T03:01:11.895Z,16.61
2023-07-27T03:03:38.402Z,16.55
2023-07-27T03:06:04.888Z,16.61
2023-07-27T03:08:32.036Z,16.60
2023-07-27T03:11:02.876Z,16.73
2023-07-27T03:13:29.538Z,16.70
2023-07-27T03:15:56.399Z,16.66
2023-07-27T03:18:23.230Z,16.60
2023-07-27T03:20:49.695Z,16.49
2023-07-27T03:23:16.166Z,16.54
2023-07-27T03:25:42.708Z,16.57
2023-07-27T03:28:09.463Z,16.58
2023-07-27T03:30:36.794Z,16.56
2023-07-27T03:33:04.266Z,16.45
2023-07-27T03:35:31.032Z,16.53
2023-07-27T03:37:57.504Z,16.61
2023-07-27T03:40:23.984Z,16.61
2023-07-27T03:42:50.455Z,16.60
2023-07-27T03:45:17.632Z,16.62
2023-07-27T03:47:46.513Z,16.60
2023-07-27T03:50:13.853Z,16.55
2023-07-27T03:52:40.757Z,16.52
2023-07-27T03:55:07.435Z,16.46
2023-07-27T03:57:33.878Z,16.50
2023-07-27T04:00:00.641Z,16.54
2023-07-27T04:02:28.129Z,16.55
2023-07-27T04:04:55.082Z,16.61
2023-07-27T04:07:22.070Z,16.57
2023-07-27T04:09:48.546Z,16.50
2023-07-27T04:12:15.038Z,16.60
2023-07-27T04:14:41.474Z,16.61
2023-07-27T04:17:07.934Z,16.59
2023-07-27T04:19:35.208Z,16.58
2023-07-27T04:22:01.675Z,16.51
2023-07-27T04:24:28.193Z,16.54
2023-07-27T04:26:54.731Z,16.41
2023-07-27T04:29:21.221Z,16.40
2023-07-27T04:31:47.692Z,16.33
2023-07-27T04:34:14.286Z,16.38
2023-07-27T04:36:40.727Z,16.41
2023-07-27T04:39:07.203Z,16.26
2023-07-27T04:41:33.707Z,16.26
2023-07-27T04:44:00.535Z,16.23
2023-07-27T04:46:27.057Z,16.27
2023-07-27T04:48:53.563Z,16.18
2023-07-27T04:51:20.003Z,16.13
2023-07-27T04:53:46.500Z,16.18
2023-07-27T04:56:12.951Z,16.17
2023-07-27T04:58:39.412Z,16.23
2023-07-27T05:01:05.865Z,16.26
2023-07-27T05:03:32.452Z,16.20
2023-07-27T05:05:58.939Z,16.25
2023-07-27T05:08:25.454Z,16.13
2023-07-27T05:10:51.913Z,16.16
2023-07-27T05:13:18.400Z,16.27
2023-07-27T05:15:45.233Z,16.32
2023-07-27T05:18:11.710Z,16.28
2023-07-27T05:20:38.171Z,16.27
2023-07-27T05:23:04.617Z,16.24
2023-07-27T05:25:31.103Z,16.29
2023-07-27T05:27:57.572Z,16.25
2023-07-27T05:30:24.070Z,16.16
2023-07-27T05:32:50.643Z,16.12
2023-07-27T05:35:17.229Z,16.14
2023-07-27T05:37:47.540Z,16.02
2023-07-27T05:40:17.291Z,16.03
2023-07-27T05:42:44.459Z,16.01
2023-07-27T05:45:11.157Z,15.98
2023-07-27T05:47:37.734Z,15.94
2023-07-27T05:50:04.673Z,15.87
2023-07-27T05:52:31.428Z,15.88
2023-07-27T05:54:57.930Z,15.83
2023-07-27T05:57:24.961Z,15.79
2023-07-27T06:00:03.935Z,15.72
2023-07-27T06:02:32.769Z,15.83
2023-07-27T06:04:59.321Z,15.87
2023-07-27T06:07:27.189Z,15.66
2023-07-27T06:09:53.740Z,15.71
2023-07-27T06:12:20.214Z,15.87
2023-07-27T06:14:46.787Z,15.94
2023-07-27T06:17:13.276Z,15.79
2023-07-27T06:19:39.693Z,15.75
2023-07-27T06:22:06.567Z,15.72
2023-07-27T06:24:33.079Z,15.63
2023-07-27T06:26:59.637Z,15.62
2023-07-27T06:29:26.191Z,15.73
2023-07-27T06:31:52.872Z,15.60
2023-07-27T06:34:19.469Z,15.63
2023-07-27T06:36:45.931Z,15.61
2023-07-27T06:39:12.397Z,15.64
2023-07-27T06:41:38.889Z,15.63
2023-07-27T06:44:05.443Z,15.57
2023-07-27T06:46:32.884Z,15.58
2023-07-27T06:48:59.709Z,15.61
2023-07-27T06:51:26.214Z,15.57
2023-07-27T06:53:52.810Z,15.53
2023-07-27T06:56:19.308Z,15.69
2023-07-27T06:58:45.883Z,15.75
2023-07-27T07:01:12.430Z,15.88
2023-07-27T07:03:38.960Z,15.83
2023-07-27T07:06:05.477Z,16.00
2023-07-27T07:08:31.963Z,16.05
2023-07-27T07:10:58.384Z,15.98
2023-07-27T07:13:25.553Z,16.00
2023-07-27T07:15:52.080Z,16.19
2023-07-27T07:18:18.558Z,16.21
2023-07-27T07:20:46.546Z,16.26
2023-07-27T07:23:13.354Z,16.39
2023-07-27T07:25:41.322Z,16.40
2023-07-27T07:28:07.988Z,16.44
2023-07-27T07:30:34.509Z,16.41
2023-07-27T07:33:01.042Z,16.41
2023-07-27T07:35:27.622Z,16.41
2023-07-27T07:37:54.053Z,16.38
2023-07-27T07:40:24.883Z,16.32
2023-07-27T07:42:51.354Z,16.37
2023-07-27T07:45:17.830Z,16.40
2023-07-27T07:47:44.348Z,16.46
2023-07-27T07:50:11.269Z,16.47
2023-07-27T07:52:37.748Z,16.48
2023-07-27T07:55:04.440Z,16.61
2023-07-27T07:57:31.207Z,16.50
2023-07-27T07:59:57.666Z,16.42
2023-07-27T08:02:24.155Z,16.53
2023-07-27T08:04:50.678Z,16.44
2023-07-27T08:07:17.116Z,16.53
2023-07-27T08:09:44.345Z,16.55
2023-07-27T08:12:10.885Z,16.51
2023-07-27T08:14:37.337Z,16.61
2023-07-27T08:17:05.410Z,16.71
2023-07-27T08:19:33.259Z,16.78
2023-07-27T08:21:59.697Z,16.75
2023-07-27T08:24:26.259Z,16.83
2023-07-27T08:26:52.716Z,16.86
2023-07-27T08:29:19.175Z,16.85
2023-07-27T08:31:45.652Z,16.78
2023-07-27T08:34:12.141Z,16.77
2023-07-27T08:36:38.683Z,16.79
2023-07-27T08:39:05.996Z,16.85
2023-07-27T08:41:32.474Z,16.87
2023-07-27T08:43:59.976Z,16.78
2023-07-27T08:46:26.590Z,16.83
2023-07-27T08:48:53.821Z,16.85
2023-07-27T08:51:20.348Z,16.87
2023-07-27T08:53:47.828Z,16.91
2023-07-27T08:56:14.341Z,17.00
2023-07-27T08:58:40.788Z,16.99
2023-07-27T09:01:07.349Z,17.06
2023-07-27T09:03:33.889Z,17.01
2023-07-27T09:06:01.285Z,17.03
2023-07-27T09:08:29.941Z,17.03
2023-07-27T09:11:05.624Z,17.04
2023-07-27T09:13:32.507Z,17.04
2023-07-27T09:15:58.980Z,17.10
2023-07-27T09:18:26.932Z,17.14
2023-07-27T09:20:56.964Z,17.18
2023-07-27T09:23:23.799Z,17.20
2023-07-27T09:25:54.828Z,17.24
2023-07-27T09:28:28.946Z,17.27
2023-07-27T09:31:00.319Z,17.26
2023-07-27T09:33:26.892Z,17.37
2023-07-27T09:35:53.458Z,17.39
2023-07-27T09:38:27.800Z,17.43
2023-07-27T09:40:54.596Z,17.45
2023-07-27T09:43:24.926Z,17.49
2023-07-27T09:46:00.924Z,17.39
2023-07-27T09:48:31.137Z,17.50
2023-07-27T09:51:02.879Z,17.49
2023-07-27T09:53:31.052Z,17.53
2023-07-27T09:55:58.595Z,17.62
2023-07-27T09:58:25.155Z,17.65
2023-07-27T10:00:51.631Z,17.64
2023-07-27T10:03:18.121Z,17.71
2023-07-27T10:05:45.187Z,17.63
2023-07-27T10:08:12.088Z,17.64
2023-07-27T10:10:43.291Z,17.72
2023-07-27T10:13:31.839Z,17.72
2023-07-27T10:16:01.469Z,17.74
2023-07-27T10:18:29.289Z,17.80
2023-07-27T10:20:56.937Z,17.80
2023-07-27T10:23:30.641Z,17.81
2023-07-27T10:25:57.239Z,18.42
2023-07-27T10:28:39.556Z,18.67
2023-07-27T10:31:15.561Z,19.37
2023-07-27T10:33:48.365Z,19.88
2023-07-27T10:36:17.856Z,20.42
2023-07-27T10:38:57.236Z,20.41
2023-07-27T10:41:25.628Z,21.17
2023-07-27T10:44:07.347Z,20.57
2023-07-27T10:46:38.236Z,20.13
2023-07-27T10:49:11.260Z,19.83
2023-07-27T10:51:39.047Z,19.72
2023-07-27T10:54:06.162Z,19.64
2023-07-27T10:56:33.607Z,19.39
2023-07-27T10:59:01.150Z,19.33
2023-07-27T11:01:31.832Z,19.31
2023-07-27T11:03:58.426Z,19.22
2023-07-27T11:06:28.896Z,19.26
2023-07-27T11:08:57.088Z,19.21
2023-07-27T11:11:28.541Z,19.04
2023-07-27T11:14:04.876Z,19.04
2023-07-27T11:16:31.615Z,18.94
2023-07-27T11:18:58.733Z,18.84
2023-07-27T11:21:25.417Z,18.83
2023-07-27T11:23:52.039Z,18.81
2023-07-27T11:26:18.900Z,18.62
2023-07-27T11:28:45.859Z,18.70
2023-07-27T11:31:17.587Z,18.67
2023-07-27T11:33:44.169Z,18.65
2023-07-27T11:36:11.889Z,18.60
2023-07-27T11:38:38.455Z,18.67
2023-07-27T11:41:33.194Z,18.61
2023-07-27T11:43:53.056Z,18.61
2023-07-27T11:46:19.690Z,18.60
2023-07-27T11:48:53.488Z,18.59
2023-07-27T11:51:27.415Z,18.70
2023-07-27T11:53:53.992Z,18.76
2023-07-27T11:56:20.501Z,18.85
2023-07-27T11:58:47.028Z,18.83
2023-07-27T12:01:13.566Z,18.80
2023-07-27T12:03:44.342Z,18.88
2023-07-27T12:06:13.100Z,18.77
2023-07-27T12:08:45.500Z,18.77
2023-07-27T12:11:40.774Z,18.64
2023-07-27T12:14:03.897Z,18.60
2023-07-27T12:19:10.175Z,18.50
2023-07-27T12:21:38.845Z,18.56
2023-07-27T12:34:09.632Z,18.76
2023-07-27T12:36:36.109Z,18.71
2023-07-27T12:39:02.591Z,18.75
2023-07-27T12:41:29.057Z,18.79
2023-07-27T12:43:57.679Z,18.71
2023-07-27T12:46:24.461Z,18.76
2023-07-27T12:48:51.269Z,18.80
2023-07-27T12:51:17.714Z,18.80
2023-07-27T12:53:44.165Z,18.87
2023-07-27T12:56:10.824Z,19.00
2023-07-27T12:58:37.425Z,19.03
2023-07-27T13:01:03.971Z,18.97
2023-07-27T13:03:30.529Z,19.12
2023-07-27T13:05:57.050Z,19.13
2023-07-27T13:08:23.517Z,19.15
2023-07-27T13:10:50.175Z,19.25
2023-07-27T13:13:16.619Z,19.22
2023-07-27T13:15:43.085Z,19.34
2023-07-27T13:18:09.620Z,19.39
2023-07-27T13:20:36.201Z,19.30
2023-07-27T13:23:02.632Z,19.39
2023-07-27T13:25:29.186Z,19.53
2023-07-27T13:27:55.718Z,19.69
2023-07-27T13:30:22.289Z,19.76
2023-07-27T13:32:49.154Z,19.76
2023-07-27T13:35:15.769Z,19.77
2023-07-27T13:37:42.388Z,19.81
2023-07-27T13:40:09.276Z,19.81
2023-07-27T13:42:35.740Z,19.84
2023-07-27T13:45:02.209Z,19.92
2023-07-27T13:47:30.241Z,19.95
2023-07-27T13:49:56.692Z,19.92
2023-07-27T13:52:23.339Z,20.03
2023-07-27T13:54:49.865Z,20.11
2023-07-27T13:57:16.363Z,20.18
2023-07-27T13:59:42.806Z,20.24
2023-07-27T14:02:09.271Z,20.32
2023-07-27T14:04:36.107Z,20.39
2023-07-27T14:07:02.683Z,20.53
2023-07-27T14:09:30.552Z,20.56
2023-07-27T14:11:57.630Z,20.72
2023-07-27T14:14:24.098Z,20.66
2023-07-27T14:16:50.545Z,20.77
2023-07-27T14:19:18.196Z,20.80
2023-07-27T14:21:44.652Z,20.82
2023-07-27T14:24:11.206Z,20.84
2023-07-27T14:26:37.750Z,20.86
2023-07-27T14:29:04.365Z,20.80
2023-07-27T14:31:30.856Z,20.83
2023-07-27T14:33:58.842Z,20.90
2023-07-27T14:36:26.343Z,20.93
2023-07-27T14:41:22.162Z,20.99
2023-07-27T14:43:48.734Z,20.92
2023-07-27T14:46:15.261Z,20.93
2023-07-27T14:48:48.690Z,20.96
2023-07-27T14:51:16.238Z,20.94
2023-07-27T14:53:44.216Z,21.03
2023-07-27T14:56:11.136Z,21.13
2023-07-27T15:01:13.302Z,21.40
2023-07-27T15:03:50.866Z,21.48
2023-07-27T15:06:18.473Z,21.61
2023-07-27T15:08:45.051Z,21.76
2023-07-27T15:13:41.685Z,21.82
2023-07-27T15:16:08.120Z,21.86
2023-07-27T15:18:35.791Z,21.90
2023-07-27T15:21:03.114Z,21.91
2023-07-27T15:23:30.806Z,21.98
2023-07-27T15:26:05.185Z,21.96
2023-07-27T15:28:35.867Z,21.96
2023-07-27T15:31:05.170Z,22.02
2023-07-27T15:33:32.200Z,22.09
2023-07-27T15:35:58.651Z,22.03
2023-07-27T15:38:25.146Z,22.05
2023-07-27T15:40:53.735Z,22.04
2023-07-27T15:43:20.451Z,22.04
2023-07-27T15:45:47.565Z,22.05
2023-07-27T15:48:15.177Z,22.01
2023-07-27T15:50:42.054Z,21.96
2023-07-27T15:53:08.785Z,21.95
2023-07-27T15:55:36.872Z,21.92
2023-07-27T15:58:04.296Z,21.85
2023-07-27T16:00:30.836Z,21.76
2023-07-27T16:02:57.413Z,21.76
2023-07-27T16:05:25.436Z,21.70
2023-07-27T16:07:52.032Z,21.71
2023-07-27T16:10:18.527Z,21.68
2023-07-27T16:12:45.046Z,21.65
2023-07-27T16:15:11.643Z,21.62
2023-07-27T16:17:38.123Z,21.58
2023-07-27T16:20:06.098Z,21.55
2023-07-27T16:22:33.240Z,21.54
2023-07-27T16:24:59.970Z,21.51
2023-07-27T16:27:26.954Z,21.52
2023-07-27T16:29:53.952Z,21.46
2023-07-27T16:32:20.870Z,21.42
2023-07-27T16:34:47.436Z,21.43
2023-07-27T16:37:13.889Z,21.39
2023-07-27T16:39:40.311Z,21.41
2023-07-27T16:42:06.943Z,21.35
2023-07-27T16:44:33.369Z,21.27
2023-07-27T16:46:59.956Z,21.24
2023-07-27T16:49:26.440Z,21.17
2023-07-27T16:51:52.910Z,21.19
2023-07-27T16:54:19.513Z,21.07
2023-07-27T16:56:45.938Z,21.00
2023-07-27T16:59:12.463Z,20.93
2023-07-27T17:01:39.584Z,20.74
2023-07-27T17:04:06.155Z,20.74
2023-07-27T17:06:33.021Z,20.69
2023-07-27T17:09:00.082Z,20.64
2023-07-27T17:11:26.530Z,20.49
2023-07-27T17:13:52.985Z,20.42
2023-07-27T17:16:19.539Z,20.30
2023-07-27T17:18:48.283Z,20.21
2023-07-27T17:21:15.048Z,20.14
2023-07-27T17:23:41.532Z,20.22
2023-07-27T17:26:08.472Z,20.23
2023-07-27T17:28:35.090Z,20.24
2023-07-27T17:31:03.553Z,20.16
2023-07-27T17:33:30.538Z,20.09
2023-07-27T17:36:02.208Z,20.03
2023-07-27T17:38:31.279Z,20.08
2023-07-27T17:40:58.973Z,20.02
2023-07-27T17:43:25.968Z,20.01
2023-07-27T17:45:53.107Z,19.96
2023-07-27T17:48:21.147Z,19.94
2023-07-27T17:50:47.724Z,20.04
2023-07-27T17:53:14.301Z,19.99
2023-07-27T17:55:40.919Z,20.01
2023-07-27T17:58:08.875Z,20.00
2023-07-27T18:00:35.661Z,20.02
2023-07-27T18:03:02.190Z,20.07
2023-07-27T18:05:28.689Z,20.04
2023-07-27T18:07:57.556Z,19.96
2023-07-27T18:10:24.288Z,19.84
2023-07-27T18:12:50.853Z,19.87
2023-07-27T18:15:17.668Z,19.88
2023-07-27T18:17:44.181Z,19.85
2023-07-27T18:20:11.194Z,19.85
2023-07-27T18:22:37.653Z,19.78
2023-07-27T18:25:04.261Z,19.74
2023-07-27T18:27:30.730Z,19.61
2023-07-27T18:29:57.202Z,19.59
2023-07-27T18:32:23.761Z,19.58
2023-07-27T18:34:54.450Z,19.46
2023-07-27T18:37:21.112Z,19.44
2023-07-27T18:39:47.604Z,19.36
2023-07-27T18:42:14.081Z,19.36
2023-07-27T18:44:40.551Z,19.34
2023-07-27T18:47:07.002Z,19.41
2023-07-27T18:49:33.463Z,19.31
2023-07-27T18:52:01.412Z,19.32
2023-07-27T18:54:28.016Z,19.31
2023-07-27T18:56:54.516Z,19.23
2023-07-27T18:59:20.973Z,19.25
2023-07-27T19:01:47.651Z,19.26
2023-07-27T19:04:14.272Z,19.30
2023-07-27T19:06:41.666Z,19.28
2023-07-27T19:09:08.206Z,19.30
2023-07-27T19:11:35.038Z,19.20
2023-07-27T19:14:01.735Z,19.15
2023-07-27T19:16:28.423Z,19.11
2023-07-27T19:18:55.270Z,19.06
2023-07-27T19:21:21.774Z,19.16
2023-07-27T19:23:48.228Z,19.16
2023-07-27T19:26:22.394Z,19.15
2023-07-27T19:28:49.245Z,19.16
2023-07-27T19:31:23.368Z,19.19
2023-07-27T19:33:53.813Z,19.16
2023-07-27T19:36:21.755Z,19.21
2023-07-27T19:38:48.532Z,19.11
2023-07-27T19:41:16.490Z,19.12
2023-07-27T19:43:43.603Z,19.20
2023-07-27T19:46:10.862Z,19.11
2023-07-27T19:48:38.077Z,19.13
2023-07-27T19:51:05.413Z,19.12
2023-07-27T19:53:31.915Z,19.18
2023-07-27T19:56:05.219Z,19.14
2023-07-27T19:58:32.262Z,19.23
2023-07-27T20:00:59.587Z,19.18
2023-07-27T20:03:26.345Z,19.22
2023-07-27T20:05:53.657Z,19.25
2023-07-27T20:08:31.781Z,19.25
2023-07-27T20:11:07.116Z,19.10
2023-07-27T20:13:33.645Z,19.11
2023-07-27T20:16:00.206Z,19.07
2023-07-27T20:18:27.119Z,19.01
2023-07-27T20:20:54.213Z,19.04
2023-07-27T20:23:21.561Z,18.93
2023-07-27T20:25:48.238Z,18.91
2023-07-27T20:28:14.816Z,18.93
2023-07-27T20:30:41.393Z,18.96
2023-07-27T20:33:07.953Z,18.89
2023-07-27T20:35:34.422Z,18.97
2023-07-27T20:38:00.857Z,18.93
2023-07-27T20:40:27.349Z,19.01
2023-07-27T20:42:53.824Z,18.99
2023-07-27T20:45:20.328Z,18.99
2023-07-27T20:47:46.969Z,19.04
2023-07-27T20:50:15.058Z,19.05
2023-07-27T20:52:42.487Z,19.02
2023-07-27T20:55:09.393Z,19.00
2023-07-27T20:57:35.913Z,19.03
2023-07-27T21:00:02.482Z,19.00
2023-07-27T21:02:29.237Z,19.03
2023-07-27T21:04:55.717Z,19.02
2023-07-27T21:07:22.645Z,18.97
2023-07-27T21:09:49.702Z,18.88
2023-07-27T21:12:19.893Z,18.87
2023-07-27T21:14:46.439Z,18.86
2023-07-27T21:17:13.138Z,18.87
2023-07-27T21:19:39.706Z,18.85
2023-07-27T21:22:06.411Z,18.88
2023-07-27T21:24:33.091Z,18.75
2023-07-27T21:26:59.533Z,18.79
2023-07-27T21:29:26.042Z,18.83
2023-07-27T21:31:52.548Z,18.89
2023-07-27T21:34:19.014Z,18.91
2023-07-27T21:36:45.507Z,18.95
2023-07-27T21:39:16.945Z,18.81
2023-07-27T21:41:43.799Z,18.74
2023-07-27T21:44:10.939Z,18.79
2023-07-27T21:46:37.617Z,18.81
2023-07-27T21:49:04.305Z,18.79
2023-07-27T21:51:30.729Z,18.73
2023-07-27T21:53:57.222Z,18.71
2023-07-27T21:56:23.657Z,18.71
2023-07-27T21:58:50.068Z,18.75
2023-07-27T22:01:16.601Z,18.83
2023-07-27T22:03:43.081Z,18.80
2023-07-27T22:06:09.704Z,18.78
2023-07-27T22:08:36.227Z,18.80
2023-07-27T22:11:02.752Z,18.83
2023-07-27T22:13:29.236Z,18.89
2023-07-27T22:15:59.838Z,18.85
2023-07-27T22:18:26.301Z,18.82
2023-07-27T22:20:52.739Z,18.87
2023-07-27T22:23:19.247Z,18.78
2023-07-27T22:25:45.946Z,18.80
2023-07-27T22:28:12.759Z,18.73
2023-07-27T22:30:46.818Z,18.66
2023-07-27T22:33:14.286Z,18.59
2023-07-27T22:35:43.026Z,18.71
2023-07-27T22:38:09.527Z,18.71
2023-07-27T22:40:35.958Z,18.74
2023-07-27T22:43:02.432Z,18.71
2023-07-27T22:45:28.906Z,18.73
2023-07-27T22:47:55.401Z,18.75
2023-07-27T22:50:21.847Z,18.80
2023-07-27T22:52:48.315Z,18.71
2023-07-27T22:55:16.914Z,18.78
2023-07-27T22:57:44.734Z,18.77
2023-07-27T23:00:11.765Z,18.76
2023-07-27T23:02:38.254Z,18.73
2023-07-27T23:05:05.149Z,18.71
2023-07-27T23:07:31.625Z,18.74
2023-07-27T23:09:58.071Z,18.70
2023-07-27T23:12:24.567Z,18.69
2023-07-27T23:14:51.755Z,18.54
2023-07-27T23:17:18.227Z,18.52
2023-07-27T23:19:44.635Z,18.54
2023-07-27T23:22:11.119Z,18.61
2023-07-27T23:24:39.409Z,18.60
2023-07-27T23:27:06.498Z,18.54
2023-07-27T23:29:32.962Z,18.38
2023-07-27T23:31:59.382Z,18.40
2023-07-27T23:34:25.867Z,18.40
2023-07-27T23:36:52.332Z,18.34
2023-07-27T23:39:18.757Z,18.32
2023-07-27T23:41:45.197Z,18.29
2023-07-27T23:44:11.795Z,18.23
2023-07-27T23:46:38.419Z,18.26
2023-07-27T23:49:05.049Z,18.27
2023-07-27T23:51:31.660Z,18.29
2023-07-27T23:53:58.128Z,18.27
2023-07-27T23:56:24.573Z,18.34
2023-07-27T23:58:51.058Z,18.24
